Time;durP1;ratioP1;P1;durP2;ratioP2;P2;SDS_P1;SDS_P2;PMS_P1;PMS_P2;Temp;Humidity;BMP_temperature;BMP_pressure;BME280_temperature;BME280_humidity;BME280_pressure;Samples;Min_cycle;Max_cycle;Signal;HPM_P1;HPM_P2
2022/04/17 00:01:15;;;;;;;16.20;7.60;;;23.30;39.30;;;;;;220582;1267;24427;-69
2022/04/17 00:06:18;;;;;;;13.30;7.50;;;23.20;38.90;;;;;;220563;1267;22610;-68
2022/04/17 00:11:23;;;;;;;13.60;8.30;;;23.20;39.00;;;;;;220796;1267;22527;-66
2022/04/17 00:16:26;;;;;;;16.30;8.20;;;23.20;39.10;;;;;;220770;1267;25612;-66
2022/04/17 00:21:30;;;;;;;14.60;7.80;;;23.10;39.50;;;;;;220484;1266;24082;-65
2022/04/17 00:26:34;;;;;;;14.40;7.50;;;23.10;39.40;;;;;;220711;1267;24495;-67
2022/04/17 00:31:38;;;;;;;14.00;7.60;;;23.10;39.20;;;;;;220863;1266;24364;-68
2022/04/17 00:36:41;;;;;;;12.30;7.50;;;23.10;39.10;;;;;;220640;1267;22639;-63
2022/04/17 00:41:46;;;;;;;12.80;7.70;;;23.20;39.10;;;;;;220665;1267;25468;-67
2022/04/17 00:46:50;;;;;;;13.80;7.50;;;23.30;38.80;;;;;;220762;1267;24214;-67
2022/04/17 00:51:54;;;;;;;14.60;7.40;;;23.40;38.60;;;;;;220671;1267;22564;-65
2022/04/17 00:56:59;;;;;;;11.70;6.50;;;23.50;38.50;;;;;;220996;1267;22641;-65
2022/04/17 01:02:06;;;;;;;11.40;6.80;;;23.50;38.40;;;;;;220380;1267;25927;-64
2022/04/17 01:07:14;;;;;;;11.40;7.00;;;23.60;38.40;;;;;;220797;1267;25524;-65
2022/04/17 01:12:27;;;;;;;12.40;7.30;;;23.60;38.30;;;;;;220488;1267;24224;-66
2022/04/17 01:17:30;;;;;;;12.60;7.20;;;23.60;38.30;;;;;;220431;1267;23422;-65
2022/04/17 01:22:34;;;;;;;12.40;7.10;;;23.60;38.30;;;;;;220522;1267;22564;-66
2022/04/17 01:27:38;;;;;;;12.10;6.40;;;23.60;38.40;;;;;;220675;1267;25320;-68
2022/04/17 01:32:41;;;;;;;9.60;5.70;;;23.50;38.40;;;;;;220937;1267;24069;-66
2022/04/17 01:37:49;;;;;;;9.60;5.30;;;23.40;38.80;;;;;;221183;1267;22738;-60
2022/04/17 01:42:52;;;;;;;11.10;6.30;;;23.40;38.50;;;;;;221078;1267;24211;-65
2022/04/17 01:47:56;;;;;;;10.80;5.80;;;23.30;38.60;;;;;;220873;1267;22774;-67
2022/04/17 01:53:00;;;;;;;10.40;6.10;;;23.30;38.60;;;;;;220460;1267;24371;-67
2022/04/17 01:58:05;;;;;;;10.30;5.80;;;23.20;38.70;;;;;;220675;1267;24418;-65
2022/04/17 02:03:13;;;;;;;10.70;6.00;;;23.20;38.70;;;;;;220796;1267;24309;-66
2022/04/17 02:08:18;;;;;;;9.90;5.30;;;23.10;38.70;;;;;;220940;1267;23939;-66
2022/04/17 02:13:23;;;;;;;11.00;5.20;;;23.10;39.10;;;;;;220825;1267;24219;-65
2022/04/17 02:18:27;;;;;;;8.00;5.50;;;23.10;38.70;;;;;;220859;1267;24480;-62
2022/04/17 02:23:30;;;;;;;9.80;5.50;;;23.10;39.10;;;;;;220942;1268;22608;-65
2022/04/17 02:28:35;;;;;;;9.60;5.80;;;23.20;38.60;;;;;;220895;1267;22543;-65
2022/04/17 02:33:40;;;;;;;8.00;4.70;;;23.30;38.50;;;;;;220856;1267;22538;-67
2022/04/17 02:38:43;;;;;;;8.40;5.00;;;23.40;38.30;;;;;;220649;1267;22604;-67
2022/04/17 02:43:47;;;;;;;9.00;5.10;;;23.50;38.20;;;;;;220738;1266;25395;-65
2022/04/17 02:48:50;;;;;;;9.40;5.20;;;23.60;38.30;;;;;;220600;1267;24313;-65
2022/04/17 02:53:56;;;;;;;8.80;5.00;;;23.70;38.00;;;;;;220527;1266;24257;-64
2022/04/17 02:58:59;;;;;;;10.20;4.80;;;23.70;38.00;;;;;;220464;1267;23908;-65
2022/04/17 03:09:26;;;;;;;8.40;4.90;;;23.50;37.80;;;;;;220681;1267;25242;-66
2022/04/17 03:14:29;;;;;;;8.00;4.50;;;23.50;38.00;;;;;;221068;1267;24418;-67
2022/04/17 03:19:33;;;;;;;10.20;4.40;;;23.40;38.80;;;;;;221124;1267;24421;-65
2022/04/17 03:24:37;;;;;;;6.60;3.90;;;23.30;38.20;;;;;;220480;1267;25621;-66
2022/04/17 03:29:41;;;;;;;6.80;3.80;;;23.30;38.30;;;;;;220481;1270;23941;-66
2022/04/17 03:34:44;;;;;;;7.10;4.10;;;23.30;38.60;;;;;;220361;1267;25553;-66
2022/04/17 03:39:48;;;;;;;7.50;4.20;;;23.20;38.40;;;;;;220144;1267;25621;-67
2022/04/17 03:44:53;;;;;;;8.00;4.30;;;23.20;38.30;;;;;;220662;1267;22604;-65
2022/04/17 03:49:57;;;;;;;7.40;4.50;;;23.10;38.30;;;;;;220634;1267;25239;-65
2022/04/17 03:55:00;;;;;;;7.40;4.20;;;23.10;38.40;;;;;;220663;1267;24286;-66
2022/04/17 04:00:06;;;;;;;8.20;4.70;;;23.10;38.50;;;;;;220608;1267;22524;-65
2022/04/17 04:05:15;;;;;;;8.20;4.40;;;23.10;39.10;;;;;;220716;1267;25491;-64
2022/04/17 04:10:19;;;;;;;6.10;3.60;;;23.20;38.60;;;;;;220632;1267;22647;-68
2022/04/17 04:15:23;;;;;;;7.30;4.30;;;23.30;38.10;;;;;;220552;1267;22739;-66
2022/04/17 04:20:26;;;;;;;7.00;4.30;;;23.40;38.00;;;;;;220537;1267;278989;-64
2022/04/17 04:25:30;;;;;;;7.60;4.70;;;23.50;37.80;;;;;;220775;1267;22754;-66
2022/04/17 04:30:34;;;;;;;7.80;4.10;;;23.60;37.70;;;;;;220587;1267;24260;-66
2022/04/17 04:35:37;;;;;;;7.30;4.40;;;23.60;37.70;;;;;;220897;1268;24388;-62
2022/04/17 04:40:41;;;;;;;8.20;4.30;;;23.60;37.70;;;;;;220952;1267;22729;-67
2022/04/17 04:51:07;;;;;;;7.00;3.80;;;23.50;37.80;;;;;;220775;1267;22715;-66
2022/04/17 04:56:13;;;;;;;6.00;4.00;;;23.50;37.80;;;;;;220760;1267;24053;-67
2022/04/17 05:01:16;;;;;;;7.30;4.00;;;23.40;37.40;;;;;;220860;1267;22759;-66
2022/04/17 05:06:20;;;;;;;6.90;3.70;;;23.40;38.00;;;;;;220925;1267;24337;-65
2022/04/17 05:11:24;;;;;;;6.80;4.40;;;23.30;37.90;;;;;;220901;1267;22790;-65
2022/04/17 05:16:27;;;;;;;6.20;3.70;;;23.30;37.90;;;;;;220957;1267;22852;-66
2022/04/17 05:21:32;;;;;;;7.10;3.70;;;23.30;38.00;;;;;;220570;1267;25302;-65
2022/04/17 05:26:37;;;;;;;7.80;3.90;;;23.30;38.40;;;;;;221029;1267;22574;-68
2022/04/17 05:31:40;;;;;;;6.10;3.60;;;23.10;38.20;;;;;;220742;1267;22703;-62
2022/04/17 05:36:45;;;;;;;6.20;3.90;;;23.10;38.10;;;;;;221098;1268;24218;-67
2022/04/17 05:41:50;;;;;;;7.30;4.10;;;23.10;38.20;;;;;;220684;1267;22541;-66
2022/04/17 05:46:55;;;;;;;6.30;3.40;;;23.20;38.30;;;;;;220624;1267;22786;-66
2022/04/17 05:51:59;;;;;;;5.90;3.50;;;23.20;38.30;;;;;;220648;1267;22983;-70
2022/04/17 05:57:04;;;;;;;8.50;4.00;;;23.20;38.10;;;;;;220609;1267;26245;-67
2022/04/17 06:02:09;;;;;;;5.20;3.30;;;23.40;37.80;;;;;;220596;1267;22566;-67
2022/04/17 06:07:25;;;;;;;6.60;3.80;;;23.50;37.80;;;;;;220472;1267;22529;-67
2022/04/17 06:12:38;;;;;;;6.00;3.60;;;23.50;37.60;;;;;;220474;1270;25236;-65
2022/04/17 06:17:46;;;;;;;6.60;4.00;;;23.60;37.50;;;;;;221027;1267;25381;-65
2022/04/17 06:22:51;;;;;;;5.60;3.60;;;23.60;37.40;;;;;;220661;1267;22523;-66
2022/04/17 06:27:59;;;;;;;6.60;3.80;;;23.60;37.40;;;;;;220784;1267;23896;-67
2022/04/17 06:33:03;;;;;;;5.90;3.00;;;23.50;37.50;;;;;;220603;1267;24371;-67
2022/04/17 06:38:10;;;;;;;5.50;3.30;;;23.50;37.70;;;;;;220926;1268;22532;-68
2022/04/17 06:43:16;;;;;;;6.70;3.80;;;23.50;37.50;;;;;;220968;1267;24069;-67
2022/04/17 06:48:23;;;;;;;6.70;3.30;;;23.40;37.50;;;;;;220907;1268;22550;-67
2022/04/17 06:53:26;;;;;;;6.70;3.60;;;23.40;37.40;;;;;;220919;1267;24158;-66
2022/04/17 06:58:31;;;;;;;6.00;3.50;;;23.30;37.30;;;;;;220812;1267;22541;-67
2022/04/17 07:03:36;;;;;;;5.50;3.50;;;23.30;37.40;;;;;;220865;1267;26489;-69
2022/04/17 07:08:42;;;;;;;6.50;3.40;;;23.30;38.10;;;;;;220669;1268;22598;-68
2022/04/17 07:13:47;;;;;;;6.10;3.80;;;23.30;37.40;;;;;;220774;1267;24363;-67
2022/04/17 07:18:52;;;;;;;5.50;3.10;;;23.30;37.50;;;;;;221085;1267;22720;-67
2022/04/17 07:23:56;;;;;;;5.30;3.20;;;23.30;37.40;;;;;;220731;1267;24198;-68
2022/04/17 07:29:00;;;;;;;5.00;2.90;;;23.30;37.50;;;;;;220632;1267;22591;-70
2022/04/17 07:34:03;;;;;;;6.00;3.70;;;23.30;37.50;;;;;;220663;1268;23902;-67
2022/04/17 07:39:08;;;;;;;5.90;3.40;;;23.30;37.70;;;;;;220538;1267;22726;-67
2022/04/17 07:44:13;;;;;;;6.40;3.30;;;23.20;37.40;;;;;;220867;1267;24404;-70
2022/04/17 07:49:18;;;;;;;5.40;3.40;;;23.30;37.30;;;;;;220954;1267;22647;-67
2022/04/17 07:54:27;;;;;;;5.80;3.10;;;23.20;37.30;;;;;;220678;1267;22516;-64
2022/04/17 07:59:32;;;;;;;7.30;2.90;;;23.20;37.30;;;;;;221076;1267;24539;-68
2022/04/17 08:04:57;;;;;;;5.10;2.80;;;23.20;36.90;;;;;;220925;1267;22633;-67
2022/04/17 08:10:01;;;;;;;5.30;2.80;;;23.20;37.30;;;;;;220800;1268;25324;-68
2022/04/17 08:15:08;;;;;;;5.30;2.90;;;23.20;37.30;;;;;;220800;1267;22551;-71
2022/04/17 08:20:12;;;;;;;5.40;2.80;;;23.20;37.20;;;;;;220717;1269;24254;-67
2022/04/17 08:25:21;;;;;;;4.60;2.70;;;23.30;37.30;;;;;;220686;1267;22917;-66
2022/04/17 08:30:26;;;;;;;4.60;2.80;;;23.20;37.20;;;;;;220548;1267;25291;-66
2022/04/17 08:35:30;;;;;;;4.70;2.40;;;23.20;37.20;;;;;;220828;1267;24358;-66
2022/04/17 08:40:39;;;;;;;4.60;2.40;;;23.30;37.50;;;;;;220600;1267;22645;-66
2022/04/17 08:45:51;;;;;;;5.10;2.80;;;23.30;37.20;;;;;;220527;1267;24209;-69
2022/04/17 08:50:58;;;;;;;4.20;2.50;;;23.30;37.10;;;;;;220443;1267;22553;-66
2022/04/17 08:56:05;;;;;;;5.40;2.80;;;23.30;37.20;;;;;;221064;1265;24294;-67
2022/04/17 09:01:17;;;;;;;5.80;2.50;;;23.40;37.00;;;;;;221014;1268;22549;-65
2022/04/17 09:06:21;;;;;;;3.80;2.40;;;23.40;36.90;;;;;;221153;1268;24213;-66
2022/04/17 09:11:35;;;;;;;4.10;2.70;;;23.40;36.90;;;;;;220871;1265;23957;-67
2022/04/17 09:16:43;;;;;;;4.40;2.60;;;23.40;37.30;;;;;;220802;1265;22744;-68
2022/04/17 09:21:54;;;;;;;4.20;2.60;;;23.40;36.80;;;;;;220789;1267;23927;-66
2022/04/17 09:27:04;;;;;;;4.20;2.40;;;23.40;37.10;;;;;;220687;1265;25301;-66
2022/04/17 09:32:11;;;;;;;4.00;2.50;;;23.50;36.50;;;;;;220272;1267;25513;-68
2022/04/17 09:37:17;;;;;;;3.80;2.10;;;23.50;36.80;;;;;;220540;1267;25595;-68
2022/04/17 09:42:25;;;;;;;3.80;2.50;;;23.50;37.10;;;;;;220650;1270;22675;-66
2022/04/17 09:47:31;;;;;;;5.90;2.40;;;23.60;36.70;;;;;;220661;1267;24229;-69
2022/04/17 09:52:47;;;;;;;4.60;2.20;;;23.50;36.60;;;;;;221008;1265;24373;-68
2022/04/17 09:57:57;;;;;;;4.20;2.40;;;23.60;36.70;;;;;;220857;1265;23035;-67
2022/04/17 10:03:01;;;;;;;4.00;2.00;;;23.60;36.50;;;;;;220899;1269;25395;-67
2022/04/17 10:08:10;;;;;;;3.70;2.40;;;23.70;36.50;;;;;;220780;1265;23166;-68
2022/04/17 10:13:18;;;;;;;4.20;2.40;;;23.70;36.50;;;;;;220951;1265;22534;-63
2022/04/17 10:18:27;;;;;;;3.50;2.00;;;23.70;36.40;;;;;;221112;1268;25442;-67
2022/04/17 10:23:43;;;;;;;3.80;2.10;;;23.80;36.80;;;;;;220696;1265;25609;-67
2022/04/17 10:28:55;;;;;;;4.60;2.00;;;23.80;36.40;;;;;;220831;1269;22911;-66
2022/04/17 10:34:33;;;;;;;3.60;2.10;;;23.80;36.40;;;;;;220707;1264;24250;-66
2022/04/17 10:39:47;;;;;;;3.10;1.80;;;23.70;36.60;;;;;;221220;1265;25971;-67
2022/04/17 10:45:02;;;;;;;3.50;2.00;;;23.70;36.80;;;;;;220855;1265;22727;-67
2022/04/17 10:50:07;;;;;;;3.20;1.80;;;23.70;36.50;;;;;;220511;1265;22569;-68
2022/04/17 10:55:14;;;;;;;2.90;1.70;;;23.60;36.50;;;;;;220651;1268;25354;-68
2022/04/17 11:00:33;;;;;;;3.00;1.80;;;23.60;36.60;;;;;;220973;1265;22543;-68
2022/04/17 11:06:09;;;;;;;2.70;1.60;;;23.60;36.60;;;;;;220657;1268;22519;-68
2022/04/17 11:11:13;;;;;;;3.20;1.60;;;23.60;36.60;;;;;;220863;1267;22597;-69
2022/04/17 11:16:17;;;;;;;3.30;1.70;;;23.60;36.60;;;;;;220816;1267;25550;-63
2022/04/17 11:21:37;;;;;;;3.40;1.80;;;23.60;36.60;;;;;;220703;1268;25338;-66
2022/04/17 11:26:53;;;;;;;2.60;1.50;;;23.60;36.20;;;;;;220659;1267;24221;-67
2022/04/17 11:31:57;;;;;;;3.30;1.80;;;23.60;36.90;;;;;;220330;1268;24316;-66
2022/04/17 11:37:04;;;;;;;3.20;2.00;;;23.60;36.50;;;;;;220587;1268;24418;-68
2022/04/17 11:42:12;;;;;;;2.70;1.60;;;23.60;36.50;;;;;;220621;1269;22603;-68
2022/04/17 11:47:20;;;;;;;3.00;2.00;;;23.60;36.50;;;;;;220498;1268;22523;-68
2022/04/17 11:52:25;;;;;;;3.20;1.80;;;23.60;36.60;;;;;;220313;1271;22649;-69
2022/04/17 11:57:29;;;;;;;2.80;1.60;;;23.60;36.60;;;;;;220434;1267;23976;-69
2022/04/17 12:02:33;;;;;;;2.90;1.80;;;23.50;36.80;;;;;;220557;1270;25241;-66
2022/04/17 12:07:37;;;;;;;3.00;1.80;;;23.60;36.50;;;;;;220758;1268;22617;-67
2022/04/17 12:12:44;;;;;;;3.80;1.80;;;23.60;36.40;;;;;;220592;1271;22591;-67
2022/04/17 12:17:58;;;;;;;2.90;1.80;;;23.60;36.40;;;;;;220652;1268;25304;-68
2022/04/17 12:23:02;;;;;;;3.00;1.60;;;23.60;36.00;;;;;;220873;1270;22719;-67
2022/04/17 12:28:07;;;;;;;2.40;1.50;;;23.60;36.40;;;;;;220505;1268;22525;-68
2022/04/17 12:33:22;;;;;;;2.70;1.60;;;23.60;36.40;;;;;;220537;1269;22634;-67
2022/04/17 12:38:27;;;;;;;3.00;1.60;;;23.50;36.30;;;;;;220523;1268;25298;-68
2022/04/17 12:43:30;;;;;;;2.60;1.50;;;23.60;35.90;;;;;;220325;1267;26613;-65
2022/04/17 12:48:36;;;;;;;2.60;1.70;;;23.50;36.50;;;;;;220638;1270;25376;-67
2022/04/17 12:53:42;;;;;;;2.90;1.60;;;23.50;35.70;;;;;;220625;1268;22710;-68
2022/04/17 12:58:52;;;;;;;3.00;1.50;;;23.60;36.20;;;;;;220402;1268;22695;-67
2022/04/17 13:04:19;;;;;;;3.10;1.60;;;23.50;36.10;;;;;;220411;1268;25319;-67
2022/04/17 13:09:27;;;;;;;2.50;1.40;;;23.50;36.40;;;;;;220509;1268;25469;-65
2022/04/17 13:14:31;;;;;;;2.60;1.70;;;23.50;36.00;;;;;;220591;1268;24217;-66
2022/04/17 13:19:34;;;;;;;3.00;1.60;;;23.50;36.00;;;;;;220646;1268;24344;-69
2022/04/17 13:24:45;;;;;;;2.60;1.60;;;23.50;35.90;;;;;;220778;1269;22698;-68
2022/04/17 13:29:50;;;;;;;2.90;1.50;;;23.50;35.90;;;;;;220561;1268;22934;-68
2022/04/17 13:34:54;;;;;;;2.40;1.40;;;23.50;36.20;;;;;;220703;1268;25350;-68
2022/04/17 13:39:58;;;;;;;2.40;1.60;;;23.40;36.20;;;;;;220578;1268;23187;-67
2022/04/17 13:45:03;;;;;;;2.30;1.40;;;23.50;35.90;;;;;;220529;1268;24208;-66
2022/04/17 13:50:14;;;;;;;3.10;1.50;;;23.50;36.20;;;;;;220358;1268;23333;-68
2022/04/17 13:55:33;;;;;;;2.80;1.50;;;23.40;35.80;;;;;;220870;1268;22766;-66
2022/04/17 14:00:36;;;;;;;2.70;1.70;;;23.40;35.80;;;;;;220659;1268;25406;-66
2022/04/17 14:05:40;;;;;;;2.40;1.40;;;23.30;35.20;;;;;;220788;1268;24274;-67
2022/04/17 14:10:46;;;;;;;2.10;1.40;;;23.30;35.70;;;;;;220715;1268;25475;-69
2022/04/17 14:15:50;;;;;;;3.10;1.50;;;23.30;36.00;;;;;;220790;1268;25044;-67
2022/04/17 14:20:54;;;;;;;2.70;1.50;;;23.30;35.50;;;;;;220879;1268;25296;-67
2022/04/17 14:26:01;;;;;;;2.60;1.50;;;23.30;35.60;;;;;;220597;1268;25310;-66
2022/04/17 14:31:13;;;;;;;2.30;1.30;;;23.30;35.20;;;;;;220764;1268;25249;-71
2022/04/17 14:36:19;;;;;;;2.50;1.30;;;23.20;35.50;;;;;;220703;1267;23092;-69
2022/04/17 14:41:23;;;;;;;2.70;1.60;;;23.30;35.60;;;;;;220522;1268;26443;-69
2022/04/17 14:46:43;;;;;;;2.50;1.50;;;23.20;35.50;;;;;;220430;1268;22535;-67
2022/04/17 14:51:57;;;;;;;2.60;1.40;;;23.20;36.20;;;;;;220617;1267;22561;-65
2022/04/17 14:57:01;;;;;;;2.50;1.30;;;23.20;35.60;;;;;;220673;1267;26402;-65
2022/04/17 15:02:09;;;;;;;2.00;1.20;;;23.20;35.50;;;;;;220735;1268;24323;-70
2022/04/17 15:07:14;;;;;;;3.90;1.60;;;23.20;35.50;;;;;;220567;1268;22613;-66
2022/04/17 15:12:19;;;;;;;2.40;1.20;;;23.10;35.80;;;;;;220725;1267;22565;-69
2022/04/17 15:17:25;;;;;;;2.50;1.30;;;23.10;35.40;;;;;;220476;1267;24246;-68
2022/04/17 15:22:34;;;;;;;2.50;1.30;;;23.10;35.50;;;;;;220928;1268;26331;-68
2022/04/17 15:27:39;;;;;;;2.60;1.30;;;23.10;36.00;;;;;;220583;1268;22532;-70
2022/04/17 15:32:45;;;;;;;2.10;1.20;;;23.00;35.50;;;;;;220420;1268;22763;-71
2022/04/17 15:37:54;;;;;;;2.20;1.30;;;23.00;35.70;;;;;;220658;1267;22576;-66
2022/04/17 15:47:54;;;;;;;2.10;1.30;;;23.00;35.50;;;;;;220942;1267;22624;-66
2022/04/17 15:48:28;;;;;;;1.80;1.10;;;23.00;35.40;;;;;;220585;1268;22547;-66
2022/04/17 15:53:32;;;;;;;2.90;1.30;;;22.90;35.50;;;;;;220775;1268;22787;-66
2022/04/17 15:58:44;;;;;;;2.20;1.40;;;22.90;35.80;;;;;;220749;1267;25308;-64
2022/04/17 16:03:49;;;;;;;2.70;1.40;;;22.90;35.50;;;;;;220908;1268;24310;-68
2022/04/17 16:08:58;;;;;;;2.50;1.50;;;22.90;35.40;;;;;;220691;1267;22553;-66
2022/04/17 16:14:02;;;;;;;1.60;1.00;;;22.90;35.50;;;;;;220614;1267;25021;-66
2022/04/17 16:19:06;;;;;;;2.60;1.60;;;22.80;35.40;;;;;;220137;1268;24240;-67
2022/04/17 16:24:14;;;;;;;2.80;1.50;;;22.80;35.40;;;;;;220263;1267;275471;-63
2022/04/17 16:29:18;;;;;;;2.30;1.20;;;22.80;35.00;;;;;;220815;1268;23004;-66
2022/04/17 16:34:22;;;;;;;1.70;1.10;;;22.80;35.50;;;;;;220580;1268;24629;-67
2022/04/17 16:39:25;;;;;;;2.80;1.30;;;22.80;35.70;;;;;;220768;1268;24398;-67
2022/04/17 16:44:29;;;;;;;1.80;1.00;;;22.70;35.40;;;;;;220834;1267;22645;-67
2022/04/17 16:49:37;;;;;;;2.60;1.30;;;22.80;35.60;;;;;;220596;1268;22560;-67
2022/04/17 16:54:55;;;;;;;3.20;1.50;;;22.70;35.50;;;;;;220600;1268;22609;-65
2022/04/17 17:00:06;;;;;;;2.40;1.20;;;22.70;35.70;;;;;;221015;1268;22609;-65
2022/04/17 17:05:15;;;;;;;2.40;1.40;;;22.80;35.60;;;;;;220756;1267;24299;-64
2022/04/17 17:10:39;;;;;;;2.20;1.20;;;23.00;35.40;;;;;;220717;1267;25370;-66
2022/04/17 17:15:58;;;;;;;2.20;1.20;;;23.20;35.00;;;;;;220671;1267;24274;-66
2022/04/17 17:21:26;;;;;;;2.50;1.10;;;23.40;35.00;;;;;;220271;1268;24281;-66
2022/04/17 17:26:51;;;;;;;2.10;1.00;;;23.50;34.90;;;;;;220529;1267;22706;-66
2022/04/17 17:32:09;;;;;;;1.60;1.10;;;23.50;34.90;;;;;;220531;1267;23136;-67
2022/04/17 17:37:16;;;;;;;1.90;1.20;;;23.60;34.70;;;;;;220849;1267;24644;-68
2022/04/17 17:42:26;;;;;;;3.20;1.20;;;23.70;35.30;;;;;;220376;1268;25468;-63
2022/04/17 17:47:38;;;;;;;1.50;0.90;;;23.70;34.60;;;;;;220420;1267;24289;-65
2022/04/17 17:52:49;;;;;;;1.90;1.10;;;23.70;34.70;;;;;;220785;1267;22974;-66
2022/04/17 17:57:56;;;;;;;2.30;1.10;;;23.60;35.00;;;;;;220712;1268;25346;-67
2022/04/17 18:03:02;;;;;;;2.60;1.40;;;23.60;34.60;;;;;;220365;1268;22560;-65
2022/04/17 18:19:02;;;;;;;2.60;1.40;;;23.50;34.90;;;;;;220459;1267;24370;-62
2022/04/17 18:24:23;;;;;;;3.10;1.40;;;23.50;35.30;;;;;;220863;1267;22632;-69
2022/04/17 18:29:38;;;;;;;2.50;1.40;;;23.40;35.00;;;;;;220847;1267;24405;-64
2022/04/17 18:34:45;;;;;;;3.50;1.80;;;23.40;35.00;;;;;;220938;1267;22619;-68
2022/04/17 18:39:53;;;;;;;2.70;1.50;;;23.40;35.30;;;;;;221000;1267;25659;-64
2022/04/17 18:44:57;;;;;;;3.40;2.00;;;23.40;35.10;;;;;;220778;1266;22630;-65
2022/04/17 18:50:14;;;;;;;3.50;1.90;;;23.40;35.00;;;;;;220625;1268;24405;-65
2022/04/17 18:55:21;;;;;;;4.30;2.60;;;23.30;35.00;;;;;;220812;1267;25409;-66
2022/04/17 19:00:37;;;;;;;3.80;2.10;;;23.30;35.30;;;;;;220922;1267;24343;-64
2022/04/17 19:05:54;;;;;;;3.50;2.10;;;23.30;35.10;;;;;;220391;1267;22529;-66
2022/04/17 19:16:33;;;;;;;3.10;1.90;;;23.40;35.10;;;;;;220612;1267;23337;-64
2022/04/17 19:21:37;;;;;;;3.30;2.10;;;23.30;35.10;;;;;;221060;1267;22708;-65
2022/04/17 19:26:40;;;;;;;4.30;2.00;;;23.30;35.00;;;;;;220980;1268;26535;-64
2022/04/17 19:37:12;;;;;;;3.50;1.90;;;23.40;35.00;;;;;;220703;1267;23568;-66
2022/04/17 19:42:18;;;;;;;4.20;2.60;;;23.50;35.00;;;;;;220585;1268;22574;-65
2022/04/17 19:47:24;;;;;;;3.10;2.00;;;23.60;34.90;;;;;;220585;1268;24320;-64
2022/04/17 19:52:28;;;;;;;3.90;1.90;;;23.60;34.80;;;;;;220799;1267;24314;-66
2022/04/17 19:57:32;;;;;;;3.10;2.00;;;23.70;34.80;;;;;;220937;1267;23169;-65
2022/04/17 20:02:39;;;;;;;3.80;1.90;;;23.80;34.60;;;;;;220677;1267;24361;-64
2022/04/17 20:07:43;;;;;;;3.10;1.90;;;23.70;34.60;;;;;;220772;1267;22697;-64
2022/04/17 20:12:54;;;;;;;3.40;2.00;;;23.80;34.60;;;;;;220632;1267;22530;-64
2022/04/17 20:18:00;;;;;;;3.50;2.20;;;23.80;34.60;;;;;;220522;1268;22636;-63
2022/04/17 20:23:10;;;;;;;4.00;2.50;;;23.70;34.70;;;;;;220671;1268;22528;-66
2022/04/17 20:28:14;;;;;;;5.60;2.40;;;23.70;35.40;;;;;;220925;1267;25452;-64
2022/04/17 20:33:18;;;;;;;4.20;2.40;;;23.60;34.80;;;;;;220754;1267;22620;-69
2022/04/17 20:38:22;;;;;;;4.50;2.60;;;23.60;35.00;;;;;;220815;1267;24295;-64
2022/04/17 20:54:17;;;;;;;15.10;7.70;;;23.50;35.00;;;;;;220624;1267;24263;-66
2022/04/17 20:59:30;;;;;;;23.80;10.80;;;23.50;35.00;;;;;;220855;1268;22544;-63
2022/04/17 21:04:48;;;;;;;29.40;13.80;;;23.50;35.10;;;;;;220623;1267;22641;-67
2022/04/17 21:09:55;;;;;;;34.10;16.50;;;23.40;35.10;;;;;;220773;1267;24074;-66
2022/04/17 21:14:59;;;;;;;36.40;17.70;;;23.40;35.50;;;;;;220443;1267;22525;-66
2022/04/17 21:20:04;;;;;;;45.80;20.40;;;23.40;35.20;;;;;;220513;1267;22574;-65
2022/04/17 21:25:08;;;;;;;43.50;20.70;;;23.30;35.20;;;;;;220533;1267;22569;-66
2022/04/17 21:30:12;;;;;;;41.40;19.70;;;23.30;35.30;;;;;;220756;1267;22800;-66
2022/04/17 21:35:16;;;;;;;46.20;21.40;;;23.30;35.20;;;;;;220432;1267;25276;-64
2022/04/17 21:40:28;;;;;;;48.90;23.00;;;23.30;35.90;;;;;;220707;1267;22556;-67
2022/04/17 21:45:39;;;;;;;46.70;23.60;;;23.30;35.30;;;;;;220769;1267;23911;-64
2022/04/17 21:50:45;;;;;;;48.40;24.20;;;23.30;35.60;;;;;;220441;1265;24305;-66
2022/04/17 21:55:49;;;;;;;47.40;23.90;;;23.40;35.30;;;;;;221141;1265;22607;-65
2022/04/17 22:06:16;;;;;;;46.20;23.60;;;23.30;35.40;;;;;;220832;1265;25602;-65
2022/04/17 22:11:20;;;;;;;46.40;21.90;;;23.30;35.30;;;;;;220875;1267;25479;-65
2022/04/17 22:16:24;;;;;;;43.90;21.80;;;23.30;35.30;;;;;;220638;1267;22640;-66
2022/04/17 22:21:30;;;;;;;47.50;23.10;;;23.30;35.30;;;;;;220864;1267;22605;-66
2022/04/17 22:26:33;;;;;;;44.00;20.60;;;23.30;35.40;;;;;;220409;1267;25569;-64
2022/04/17 22:31:39;;;;;;;43.00;23.00;;;23.30;35.40;;;;;;221007;1267;23184;-65
2022/04/17 22:36:43;;;;;;;40.50;20.90;;;23.20;35.30;;;;;;221027;1267;22610;-65
2022/04/17 22:41:47;;;;;;;42.70;21.60;;;23.30;35.40;;;;;;221023;1267;23049;-64
2022/04/17 22:46:51;;;;;;;43.20;22.40;;;23.30;35.40;;;;;;220873;1267;24290;-64
2022/04/17 22:51:58;;;;;;;48.00;23.90;;;23.30;35.50;;;;;;220851;1267;23245;-65
2022/04/17 22:57:04;;;;;;;39.80;21.90;;;23.30;35.40;;;;;;220721;1267;24419;-64
2022/04/17 23:02:08;;;;;;;38.90;20.70;;;23.30;35.40;;;;;;220778;1267;22585;-65
2022/04/17 23:07:15;;;;;;;39.00;21.20;;;23.30;35.50;;;;;;220929;1267;25290;-66
2022/04/17 23:12:19;;;;;;;42.20;21.50;;;23.20;35.40;;;;;;220681;1265;25467;-64
2022/04/17 23:17:24;;;;;;;36.50;20.30;;;23.30;35.80;;;;;;220501;1267;26723;-65
2022/04/17 23:22:29;;;;;;;36.80;20.00;;;23.30;35.60;;;;;;220897;1267;22571;-67
2022/04/17 23:27:34;;;;;;;38.40;20.80;;;23.30;35.70;;;;;;220640;1266;22586;-65
2022/04/17 23:32:38;;;;;;;35.70;19.00;;;23.20;35.60;;;;;;220816;1267;24376;-65
2022/04/17 23:37:42;;;;;;;35.00;19.10;;;23.20;35.90;;;;;;220709;1268;22587;-65
2022/04/17 23:42:47;;;;;;;37.70;19.60;;;23.30;35.70;;;;;;220500;1267;22698;-64
2022/04/17 23:47:53;;;;;;;35.70;18.70;;;23.30;35.70;;;;;;220679;1268;22531;-64
2022/04/17 23:52:57;;;;;;;36.90;19.10;;;23.30;35.70;;;;;;220605;1267;22756;-66
2022/04/17 23:58:00;;;;;;;34.10;17.90;;;23.20;35.70;;;;;;220761;1267;25233;-61
